sensor_id;sensor_type;location;lat;lon;timestamp;pressure;altitude;pressure_sealevel;temperature
53412;BMP280;39307;52.870;13.660;2023-02-10T00:01:40;102608.75;;;-0.28
53412;BMP280;39307;52.870;13.660;2023-02-10T00:04:06;102614.81;;;-0.29
53412;BMP280;39307;52.870;13.660;2023-02-10T00:06:32;102618.75;;;-0.22
53412;BMP280;39307;52.870;13.660;2023-02-10T00:09:00;102613.63;;;-0.22
53412;BMP280;39307;52.870;13.660;2023-02-10T00:11:27;102619.69;;;-0.23
53412;BMP280;39307;52.870;13.660;2023-02-10T00:13:53;102624.00;;;-0.24
53412;BMP280;39307;52.870;13.660;2023-02-10T00:16:20;102616.19;;;-0.22
53412;BMP280;39307;52.870;13.660;2023-02-10T00:18:46;102615.16;;;-0.18
53412;BMP280;39307;52.870;13.660;2023-02-10T00:21:16;102618.34;;;-0.13
53412;BMP280;39307;52.870;13.660;2023-02-10T00:23:42;102619.84;;;-0.09
53412;BMP280;39307;52.870;13.660;2023-02-10T00:26:11;102627.78;;;0.04
53412;BMP280;39307;52.870;13.660;2023-02-10T00:28:37;102619.28;;;0.02
53412;BMP280;39307;52.870;13.660;2023-02-10T00:31:12;102613.25;;;0.03
53412;BMP280;39307;52.870;13.660;2023-02-10T00:33:40;102626.03;;;0.05
53412;BMP280;39307;52.870;13.660;2023-02-10T00:36:07;102631.06;;;0.08
53412;BMP280;39307;52.870;13.660;2023-02-10T00:38:34;102638.63;;;0.11
53412;BMP280;39307;52.870;13.660;2023-02-10T00:41:05;102631.59;;;0.14
53412;BMP280;39307;52.870;13.660;2023-02-10T00:43:32;102640.25;;;0.13
53412;BMP280;39307;52.870;13.660;2023-02-10T00:45:58;102640.28;;;0.12
53412;BMP280;39307;52.870;13.660;2023-02-10T00:48:25;102642.03;;;0.11
53412;BMP280;39307;52.870;13.660;2023-02-10T00:50:51;102642.81;;;0.13
53412;BMP280;39307;52.870;13.660;2023-02-10T00:53:17;102642.00;;;0.13
53412;BMP280;39307;52.870;13.660;2023-02-10T00:55:43;102644.63;;;0.11
53412;BMP280;39307;52.870;13.660;2023-02-10T00:58:09;102646.44;;;0.09
53412;BMP280;39307;52.870;13.660;2023-02-10T01:00:35;102646.44;;;0.09
53412;BMP280;39307;52.870;13.660;2023-02-10T01:03:02;102652.19;;;0.14
53412;BMP280;39307;52.870;13.660;2023-02-10T01:05:28;102649.72;;;0.13
53412;BMP280;39307;52.870;13.660;2023-02-10T01:07:54;102643.41;;;0.18
53412;BMP280;39307;52.870;13.660;2023-02-10T01:10:20;102647.06;;;0.14
53412;BMP280;39307;52.870;13.660;2023-02-10T01:12:46;102643.72;;;0.12
53412;BMP280;39307;52.870;13.660;2023-02-10T01:15:13;102647.00;;;0.16
53412;BMP280;39307;52.870;13.660;2023-02-10T01:17:39;102649.56;;;0.16
53412;BMP280;39307;52.870;13.660;2023-02-10T01:20:06;102662.66;;;0.11
53412;BMP280;39307;52.870;13.660;2023-02-10T01:22:33;102661.81;;;0.11
53412;BMP280;39307;52.870;13.660;2023-02-10T01:24:59;102659.34;;;0.09
53412;BMP280;39307;52.870;13.660;2023-02-10T01:27:25;102646.59;;;0.06
53412;BMP280;39307;52.870;13.660;2023-02-10T01:29:51;102640.59;;;0.06
53412;BMP280;39307;52.870;13.660;2023-02-10T01:32:18;102637.03;;;0.08
53412;BMP280;39307;52.870;13.660;2023-02-10T01:34:44;102631.28;;;0.03
53412;BMP280;39307;52.870;13.660;2023-02-10T01:37:10;102637.94;;;0.07
53412;BMP280;39307;52.870;13.660;2023-02-10T01:39:36;102636.44;;;0.03
53412;BMP280;39307;52.870;13.660;2023-02-10T01:42:03;102639.34;;;-0.04
53412;BMP280;39307;52.870;13.660;2023-02-10T01:46:55;102653.19;;;-0.06
53412;BMP280;39307;52.870;13.660;2023-02-10T01:49:27;102655.22;;;-0.13
53412;BMP280;39307;52.870;13.660;2023-02-10T01:52:02;102657.94;;;-0.16
53412;BMP280;39307;52.870;13.660;2023-02-10T01:54:42;102655.50;;;-0.19
53412;BMP280;39307;52.870;13.660;2023-02-10T01:57:11;102658.28;;;-0.23
53412;BMP280;39307;52.870;13.660;2023-02-10T01:59:38;102660.09;;;-0.25
53412;BMP280;39307;52.870;13.660;2023-02-10T02:02:06;102653.19;;;-0.25
53412;BMP280;39307;52.870;13.660;2023-02-10T02:04:52;102663.44;;;-0.23
53412;BMP280;39307;52.870;13.660;2023-02-10T02:07:22;102652.09;;;-0.19
53412;BMP280;39307;52.870;13.660;2023-02-10T02:09:50;102650.28;;;-0.17
53412;BMP280;39307;52.870;13.660;2023-02-10T02:18:50;102648.00;;;-0.05
53412;BMP280;39307;52.870;13.660;2023-02-10T02:21:22;102646.19;;;-0.03
53412;BMP280;39307;52.870;13.660;2023-02-10T02:23:54;102640.91;;;0.00
53412;BMP280;39307;52.870;13.660;2023-02-10T02:26:52;102636.34;;;0.05
53412;BMP280;39307;52.870;13.660;2023-02-10T02:32:39;102633.56;;;0.09
53412;BMP280;39307;52.870;13.660;2023-02-10T02:35:14;102640.38;;;0.10
53412;BMP280;39307;52.870;13.660;2023-02-10T02:37:43;102635.91;;;0.14
53412;BMP280;39307;52.870;13.660;2023-02-10T02:40:11;102645.44;;;0.12
53412;BMP280;39307;52.870;13.660;2023-02-10T02:42:38;102645.59;;;0.09
53412;BMP280;39307;52.870;13.660;2023-02-10T02:45:12;102649.91;;;0.08
53412;BMP280;39307;52.870;13.660;2023-02-10T02:50:45;102641.06;;;0.14
53412;BMP280;39307;52.870;13.660;2023-02-10T02:56:45;102646.22;;;0.14
53412;BMP280;39307;52.870;13.660;2023-02-10T02:59:20;102642.81;;;0.13
53412;BMP280;39307;52.870;13.660;2023-02-10T03:01:55;102642.72;;;0.15
53412;BMP280;39307;52.870;13.660;2023-02-10T03:04:29;102648.56;;;0.18
53412;BMP280;39307;52.870;13.660;2023-02-10T03:06:56;102632.38;;;0.16
53412;BMP280;39307;52.870;13.660;2023-02-10T03:09:23;102626.94;;;0.22
53412;BMP280;39307;52.870;13.660;2023-02-10T03:11:49;102619.25;;;0.21
53412;BMP280;39307;52.870;13.660;2023-02-10T03:14:15;102621.00;;;0.20
53412;BMP280;39307;52.870;13.660;2023-02-10T03:16:42;102619.78;;;0.27
53412;BMP280;39307;52.870;13.660;2023-02-10T03:19:08;102631.84;;;0.27
53412;BMP280;39307;52.870;13.660;2023-02-10T03:21:34;102629.91;;;0.31
53412;BMP280;39307;52.870;13.660;2023-02-10T03:24:00;102633.31;;;0.32
53412;BMP280;39307;52.870;13.660;2023-02-10T03:26:28;102633.41;;;0.30
53412;BMP280;39307;52.870;13.660;2023-02-10T03:28:55;102627.22;;;0.33
53412;BMP280;39307;52.870;13.660;2023-02-10T03:31:22;102617.63;;;0.36
53412;BMP280;39307;52.870;13.660;2023-02-10T03:33:48;102627.91;;;0.36
53412;BMP280;39307;52.870;13.660;2023-02-10T03:36:15;102633.16;;;0.35
53412;BMP280;39307;52.870;13.660;2023-02-10T03:38:41;102644.28;;;0.35
53412;BMP280;39307;52.870;13.660;2023-02-10T03:41:08;102640.66;;;0.39
53412;BMP280;39307;52.870;13.660;2023-02-10T03:43:34;102642.53;;;0.36
53412;BMP280;39307;52.870;13.660;2023-02-10T03:46:01;102627.03;;;0.37
53412;BMP280;39307;52.870;13.660;2023-02-10T03:48:27;102624.66;;;0.33
53412;BMP280;39307;52.870;13.660;2023-02-10T03:50:54;102629.22;;;0.28
53412;BMP280;39307;52.870;13.660;2023-02-10T03:53:20;102638.06;;;0.23
53412;BMP280;39307;52.870;13.660;2023-02-10T03:55:46;102644.03;;;0.23
53412;BMP280;39307;52.870;13.660;2023-02-10T03:58:12;102645.72;;;0.24
53412;BMP280;39307;52.870;13.660;2023-02-10T04:00:39;102655.13;;;0.25
53412;BMP280;39307;52.870;13.660;2023-02-10T04:03:05;102654.50;;;0.20
53412;BMP280;39307;52.870;13.660;2023-02-10T04:05:31;102651.31;;;0.15
53412;BMP280;39307;52.870;13.660;2023-02-10T04:07:57;102647.97;;;0.13
53412;BMP280;39307;52.870;13.660;2023-02-10T04:10:23;102664.34;;;0.12
53412;BMP280;39307;52.870;13.660;2023-02-10T04:12:49;102662.59;;;0.13
53412;BMP280;39307;52.870;13.660;2023-02-10T04:15:16;102668.72;;;0.10
53412;BMP280;39307;52.870;13.660;2023-02-10T04:17:42;102667.34;;;0.03
53412;BMP280;39307;52.870;13.660;2023-02-10T04:20:08;102671.72;;;0.01
53412;BMP280;39307;52.870;13.660;2023-02-10T04:22:35;102672.78;;;-0.02
53412;BMP280;39307;52.870;13.660;2023-02-10T04:25:01;102671.94;;;-0.03
53412;BMP280;39307;52.870;13.660;2023-02-10T04:27:27;102682.53;;;-0.09
53412;BMP280;39307;52.870;13.660;2023-02-10T04:29:53;102675.81;;;-0.13
53412;BMP280;39307;52.870;13.660;2023-02-10T04:32:20;102676.78;;;-0.15
53412;BMP280;39307;52.870;13.660;2023-02-10T04:34:46;102679.22;;;-0.12
53412;BMP280;39307;52.870;13.660;2023-02-10T04:37:12;102675.91;;;-0.14
53412;BMP280;39307;52.870;13.660;2023-02-10T04:39:38;102680.97;;;-0.13
53412;BMP280;39307;52.870;13.660;2023-02-10T04:42:04;102675.91;;;-0.14
53412;BMP280;39307;52.870;13.660;2023-02-10T04:44:31;102673.31;;;-0.14
53412;BMP280;39307;52.870;13.660;2023-02-10T04:46:57;102682.00;;;-0.17
53412;BMP280;39307;52.870;13.660;2023-02-10T04:49:24;102676.94;;;-0.18
53412;BMP280;39307;52.870;13.660;2023-02-10T04:51:50;102681.03;;;-0.14
53412;BMP280;39307;52.870;13.660;2023-02-10T04:54:16;102689.75;;;-0.17
53412;BMP280;39307;52.870;13.660;2023-02-10T04:56:43;102682.97;;;-0.19
53412;BMP280;39307;52.870;13.660;2023-02-10T04:59:09;102689.75;;;-0.17
53412;BMP280;39307;52.870;13.660;2023-02-10T05:01:35;102686.59;;;-0.23
53412;BMP280;39307;52.870;13.660;2023-02-10T05:04:02;102687.44;;;-0.23
53412;BMP280;39307;52.870;13.660;2023-02-10T05:06:28;102690.09;;;-0.24
53412;BMP280;39307;52.870;13.660;2023-02-10T05:08:55;102684.94;;;-0.24
53412;BMP280;39307;52.870;13.660;2023-02-10T05:11:21;102684.22;;;-0.28
53412;BMP280;39307;52.870;13.660;2023-02-10T05:13:47;102682.22;;;-0.21
53412;BMP280;39307;52.870;13.660;2023-02-10T05:16:14;102689.22;;;-0.25
53412;BMP280;39307;52.870;13.660;2023-02-10T05:18:40;102687.56;;;-0.26
53412;BMP280;39307;52.870;13.660;2023-02-10T05:21:07;102694.31;;;-0.23
53412;BMP280;39307;52.870;13.660;2023-02-10T05:23:34;102691.06;;;-0.27
53412;BMP280;39307;52.870;13.660;2023-02-10T05:26:00;102702.25;;;-0.28
53412;BMP280;39307;52.870;13.660;2023-02-10T05:28:26;102703.09;;;-0.27
53412;BMP280;39307;52.870;13.660;2023-02-10T05:30:53;102702.69;;;-0.18
53412;BMP280;39307;52.870;13.660;2023-02-10T05:33:19;102692.53;;;-0.21
53412;BMP280;39307;52.870;13.660;2023-02-10T05:35:46;102690.72;;;-0.19
53412;BMP280;39307;52.870;13.660;2023-02-10T05:38:12;102691.53;;;-0.19
53412;BMP280;39307;52.870;13.660;2023-02-10T05:40:38;102687.31;;;-0.20
53412;BMP280;39307;52.870;13.660;2023-02-10T05:43:04;102694.25;;;-0.22
53412;BMP280;39307;52.870;13.660;2023-02-10T05:45:31;102698.66;;;-0.24
53412;BMP280;39307;52.870;13.660;2023-02-10T05:47:57;102708.13;;;-0.24
53412;BMP280;39307;52.870;13.660;2023-02-10T05:50:23;102701.91;;;-0.20
53412;BMP280;39307;52.870;13.660;2023-02-10T05:52:49;102701.13;;;-0.22
53412;BMP280;39307;52.870;13.660;2023-02-10T05:55:15;102702.19;;;-0.26
53412;BMP280;39307;52.870;13.660;2023-02-10T05:57:41;102707.47;;;-0.29
53412;BMP280;39307;52.870;13.660;2023-02-10T06:00:08;102704.94;;;-0.30
53412;BMP280;39307;52.870;13.660;2023-02-10T06:02:34;102717.69;;;-0.28
53412;BMP280;39307;52.870;13.660;2023-02-10T06:05:00;102721.88;;;-0.25
53412;BMP280;39307;52.870;13.660;2023-02-10T06:07:27;102724.94;;;-0.17
53412;BMP280;39307;52.870;13.660;2023-02-10T06:09:53;102729.47;;;-0.22
53412;BMP280;39307;52.870;13.660;2023-02-10T06:12:19;102733.91;;;-0.26
53412;BMP280;39307;52.870;13.660;2023-02-10T06:14:45;102727.03;;;-0.25
53412;BMP280;39307;52.870;13.660;2023-02-10T06:17:11;102736.47;;;-0.26
53412;BMP280;39307;52.870;13.660;2023-02-10T06:19:38;102729.59;;;-0.25
53412;BMP280;39307;52.870;13.660;2023-02-10T06:22:07;102728.72;;;-0.24
53412;BMP280;39307;52.870;13.660;2023-02-10T06:24:33;102735.56;;;-0.25
53412;BMP280;39307;52.870;13.660;2023-02-10T06:26:59;102740.81;;;-0.26
53412;BMP280;39307;52.870;13.660;2023-02-10T06:29:26;102746.00;;;-0.28
53412;BMP280;39307;52.870;13.660;2023-02-10T06:31:52;102756.44;;;-0.30
53412;BMP280;39307;52.870;13.660;2023-02-10T06:34:18;102765.91;;;-0.31
53412;BMP280;39307;52.870;13.660;2023-02-10T06:36:45;102760.88;;;-0.34
53412;BMP280;39307;52.870;13.660;2023-02-10T06:39:11;102769.31;;;-0.30
53412;BMP280;39307;52.870;13.660;2023-02-10T06:41:37;102761.53;;;-0.29
53412;BMP280;39307;52.870;13.660;2023-02-10T06:44:04;102770.91;;;-0.28
53412;BMP280;39307;52.870;13.660;2023-02-10T06:46:30;102770.91;;;-0.28
53412;BMP280;39307;52.870;13.660;2023-02-10T06:48:56;102771.81;;;-0.29
53412;BMP280;39307;52.870;13.660;2023-02-10T06:51:22;102771.81;;;-0.29
53412;BMP280;39307;52.870;13.660;2023-02-10T06:53:48;102778.78;;;-0.31
53412;BMP280;39307;52.870;13.660;2023-02-10T06:56:15;102778.78;;;-0.31
53412;BMP280;39307;52.870;13.660;2023-02-10T06:58:41;102778.78;;;-0.31
53412;BMP280;39307;52.870;13.660;2023-02-10T07:01:12;102770.16;;;-0.30
53412;BMP280;39307;52.870;13.660;2023-02-10T07:03:39;102775.06;;;-0.24
53412;BMP280;39307;52.870;13.660;2023-02-10T07:06:05;102782.78;;;-0.24
53412;BMP280;39307;52.870;13.660;2023-02-10T07:08:32;102786.03;;;-0.21
53412;BMP280;39307;52.870;13.660;2023-02-10T07:10:58;102782.56;;;-0.20
53412;BMP280;39307;52.870;13.660;2023-02-10T07:13:24;102778.06;;;-0.15
53412;BMP280;39307;52.870;13.660;2023-02-10T07:15:50;102790.84;;;-0.13
53412;BMP280;39307;52.870;13.660;2023-02-10T07:18:16;102792.50;;;-0.12
53412;BMP280;39307;52.870;13.660;2023-02-10T07:20:42;102795.03;;;-0.11
53412;BMP280;39307;52.870;13.660;2023-02-10T07:23:09;102794.94;;;-0.09
53412;BMP280;39307;52.870;13.660;2023-02-10T07:25:35;102799.00;;;-0.04
53412;BMP280;39307;52.870;13.660;2023-02-10T07:28:01;102787.75;;;-0.01
53412;BMP280;39307;52.870;13.660;2023-02-10T07:30:27;102789.41;;;-0.01
53412;BMP280;39307;52.870;13.660;2023-02-10T07:32:53;102797.06;;;0.01
53412;BMP280;39307;52.870;13.660;2023-02-10T07:35:20;102807.44;;;-0.01
53412;BMP280;39307;52.870;13.660;2023-02-10T07:37:46;102803.69;;;0.06
53412;BMP280;39307;52.870;13.660;2023-02-10T07:40:12;102805.38;;;0.07
53412;BMP280;39307;52.870;13.660;2023-02-10T07:42:38;102796.53;;;0.13
53412;BMP280;39307;52.870;13.660;2023-02-10T07:45:05;102804.13;;;0.16
53412;BMP280;39307;52.870;13.660;2023-02-10T07:47:31;102801.28;;;0.22
53412;BMP280;39307;52.870;13.660;2023-02-10T07:49:57;102808.94;;;0.23
53412;BMP280;39307;52.870;13.660;2023-02-10T07:52:24;102810.59;;;0.24
53412;BMP280;39307;52.870;13.660;2023-02-10T07:54:50;102807.75;;;0.30
53412;BMP280;39307;52.870;13.660;2023-02-10T07:57:17;102823.63;;;0.39
53412;BMP280;39307;52.870;13.660;2023-02-10T07:59:43;102824.41;;;0.41
53412;BMP280;39307;52.870;13.660;2023-02-10T08:02:10;102819.94;;;0.45
53412;BMP280;39307;52.870;13.660;2023-02-10T08:04:36;102822.72;;;0.58
53412;BMP280;39307;52.870;13.660;2023-02-10T08:07:03;102812.19;;;0.63
53412;BMP280;39307;52.870;13.660;2023-02-10T08:09:29;102825.63;;;0.69
53412;BMP280;39307;52.870;13.660;2023-02-10T08:11:55;102820.06;;;0.78
53412;BMP280;39307;52.870;13.660;2023-02-10T08:14:21;102810.13;;;0.87
53412;BMP280;39307;52.870;13.660;2023-02-10T08:16:48;102817.44;;;0.96
53412;BMP280;39307;52.870;13.660;2023-02-10T08:19:14;102802.31;;;1.07
53412;BMP280;39307;52.870;13.660;2023-02-10T08:21:40;102808.78;;;1.15
53412;BMP280;39307;52.870;13.660;2023-02-10T08:24:06;102814.47;;;1.22
53412;BMP280;39307;52.870;13.660;2023-02-10T08:26:32;102807.25;;;1.28
53412;BMP280;39307;52.870;13.660;2023-02-10T08:28:59;102820.00;;;1.31
53412;BMP280;39307;52.870;13.660;2023-02-10T08:31:25;102811.19;;;1.35
53412;BMP280;39307;52.870;13.660;2023-02-10T08:33:51;102810.91;;;1.41
53412;BMP280;39307;52.870;13.660;2023-02-10T08:36:18;102811.38;;;1.49
53412;BMP280;39307;52.870;13.660;2023-02-10T08:38:46;102802.69;;;1.50
53412;BMP280;39307;52.870;13.660;2023-02-10T08:41:12;102807.63;;;1.54
53412;BMP280;39307;52.870;13.660;2023-02-10T08:43:38;102812.00;;;1.69
53412;BMP280;39307;52.870;13.660;2023-02-10T08:46:05;102812.69;;;1.72
53412;BMP280;39307;52.870;13.660;2023-02-10T08:48:32;102794.16;;;1.81
53412;BMP280;39307;52.870;13.660;2023-02-10T08:50:59;102796.56;;;1.84
53412;BMP280;39307;52.870;13.660;2023-02-10T08:53:26;102799.50;;;1.94
53412;BMP280;39307;52.870;13.660;2023-02-10T08:56:01;102805.53;;;1.94
53412;BMP280;39307;52.870;13.660;2023-02-10T08:58:28;102813.34;;;1.93
53412;BMP280;39307;52.870;13.660;2023-02-10T09:00:55;102808.03;;;1.96
53412;BMP280;39307;52.870;13.660;2023-02-10T09:03:21;102801.13;;;1.96
53412;BMP280;39307;52.870;13.660;2023-02-10T09:05:48;102823.06;;;2.04
53412;BMP280;39307;52.870;13.660;2023-02-10T09:08:15;102820.22;;;2.09
53412;BMP280;39307;52.870;13.660;2023-02-10T09:10:42;102814.91;;;2.12
53412;BMP280;39307;52.870;13.660;2023-02-10T09:13:09;102819.00;;;2.16
53412;BMP280;39307;52.870;13.660;2023-02-10T09:15:39;102820.34;;;2.23
53412;BMP280;39307;52.870;13.660;2023-02-10T09:18:06;102825.19;;;2.29
53412;BMP280;39307;52.870;13.660;2023-02-10T09:20:33;102819.03;;;2.31
53412;BMP280;39307;52.870;13.660;2023-02-10T09:23:00;102825.38;;;2.41
53412;BMP280;39307;52.870;13.660;2023-02-10T09:25:26;102829.56;;;2.43
53412;BMP280;39307;52.870;13.660;2023-02-10T09:27:53;102829.72;;;2.40
53412;BMP280;39307;52.870;13.660;2023-02-10T09:30:19;102828.59;;;2.61
53412;BMP280;39307;52.870;13.660;2023-02-10T09:32:45;102827.31;;;2.53
53412;BMP280;39307;52.870;13.660;2023-02-10T09:35:11;102834.97;;;2.54
53412;BMP280;39307;52.870;13.660;2023-02-10T09:37:38;102839.41;;;2.52
53412;BMP280;39307;52.870;13.660;2023-02-10T09:40:04;102842.16;;;2.49
53412;BMP280;39307;52.870;13.660;2023-02-10T09:43:01;102846.56;;;2.47
53412;BMP280;39307;52.870;13.660;2023-02-10T09:45:35;102844.59;;;2.52
53412;BMP280;39307;52.870;13.660;2023-02-10T09:51:04;102845.16;;;2.57
53412;BMP280;39307;52.870;13.660;2023-02-10T09:53:37;102845.81;;;2.60
53412;BMP280;39307;52.870;13.660;2023-02-10T09:56:05;102847.25;;;2.66
53412;BMP280;39307;52.870;13.660;2023-02-10T10:01:24;102857.72;;;2.80
53412;BMP280;39307;52.870;13.660;2023-02-10T10:06:22;102859.69;;;2.90
53412;BMP280;39307;52.870;13.660;2023-02-10T10:11:50;102871.47;;;3.11
53412;BMP280;39307;52.870;13.660;2023-02-10T10:14:22;102867.13;;;3.11
53412;BMP280;39307;52.870;13.660;2023-02-10T10:17:18;102867.94;;;2.96
53412;BMP280;39307;52.870;13.660;2023-02-10T10:25:28;102861.34;;;2.91
53412;BMP280;39307;52.870;13.660;2023-02-10T10:28:13;102865.69;;;2.90
53412;BMP280;39307;52.870;13.660;2023-02-10T10:30:48;102866.13;;;2.98
53412;BMP280;39307;52.870;13.660;2023-02-10T10:33:19;102860.03;;;2.99
53412;BMP280;39307;52.870;13.660;2023-02-10T10:35:47;102855.69;;;3.00
53412;BMP280;39307;52.870;13.660;2023-02-10T10:38:21;102862.59;;;2.99
53412;BMP280;39307;52.870;13.660;2023-02-10T10:40:52;102852.44;;;2.96
53412;BMP280;39307;52.870;13.660;2023-02-10T10:43:26;102860.69;;;3.03
53412;BMP280;39307;52.870;13.660;2023-02-10T10:46:11;102855.50;;;3.03
53412;BMP280;39307;52.870;13.660;2023-02-10T10:48:41;102853.78;;;3.03
53412;BMP280;39307;52.870;13.660;2023-02-10T10:51:08;102859.78;;;3.04
53412;BMP280;39307;52.870;13.660;2023-02-10T10:56:21;102854.44;;;3.07
53412;BMP280;39307;52.870;13.660;2023-02-10T10:58:50;102854.94;;;3.13
53412;BMP280;39307;52.870;13.660;2023-02-10T11:01:18;102849.66;;;3.15
53412;BMP280;39307;52.870;13.660;2023-02-10T11:03:44;102845.81;;;3.21
53412;BMP280;39307;52.870;13.660;2023-02-10T11:06:19;102836.94;;;3.25
53412;BMP280;39307;52.870;13.660;2023-02-10T11:08:58;102837.44;;;3.32
53412;BMP280;39307;52.870;13.660;2023-02-10T11:11:40;102825.06;;;3.37
53412;BMP280;39307;52.870;13.660;2023-02-10T11:16:52;102830.88;;;3.55
53412;BMP280;39307;52.870;13.660;2023-02-10T11:19:24;102820.16;;;3.61
53412;BMP280;39307;52.870;13.660;2023-02-10T11:21:50;102820.78;;;3.65
53412;BMP280;39307;52.870;13.660;2023-02-10T11:24:28;102814.72;;;3.79
53412;BMP280;39307;52.870;13.660;2023-02-10T11:26:56;102823.16;;;3.83
53412;BMP280;39307;52.870;13.660;2023-02-10T11:29:23;102824.19;;;3.94
53412;BMP280;39307;52.870;13.660;2023-02-10T11:31:51;102820.91;;;3.91
53412;BMP280;39307;52.870;13.660;2023-02-10T11:34:28;102828.88;;;3.88
53412;BMP280;39307;52.870;13.660;2023-02-10T11:36:56;102820.91;;;3.91
53412;BMP280;39307;52.870;13.660;2023-02-10T11:39:38;102814.47;;;3.98
53412;BMP280;39307;52.870;13.660;2023-02-10T11:42:27;102796.56;;;3.93
53412;BMP280;39307;52.870;13.660;2023-02-10T11:44:58;102801.97;;;4.04
53412;BMP280;39307;52.870;13.660;2023-02-10T11:47:28;102810.81;;;4.00
53412;BMP280;39307;52.870;13.660;2023-02-10T11:49:55;102817.41;;;4.05
53412;BMP280;39307;52.870;13.660;2023-02-10T11:52:25;102809.75;;;4.04
53412;BMP280;39307;52.870;13.660;2023-02-10T11:54:53;102806.13;;;4.06
53412;BMP280;39307;52.870;13.660;2023-02-10T11:57:49;102801.13;;;4.03
53412;BMP280;39307;52.870;13.660;2023-02-10T12:00:38;102787.88;;;4.08
53412;BMP280;39307;52.870;13.660;2023-02-10T12:03:38;102779.34;;;4.20
53412;BMP280;39307;52.870;13.660;2023-02-10T12:06:27;102788.41;;;4.27
53412;BMP280;39307;52.870;13.660;2023-02-10T12:09:09;102779.88;;;4.38
53412;BMP280;39307;52.870;13.660;2023-02-10T12:12:03;102775.03;;;4.60
53412;BMP280;39307;52.870;13.660;2023-02-10T12:14:42;102783.81;;;4.58
53412;BMP280;39307;52.870;13.660;2023-02-10T12:17:24;102776.22;;;4.68
53412;BMP280;39307;52.870;13.660;2023-02-10T12:19:56;102780.44;;;4.83
53412;BMP280;39307;52.870;13.660;2023-02-10T12:28:14;102783.97;;;4.82
53412;BMP280;39307;52.870;13.660;2023-02-10T12:33:42;102786.56;;;4.82
53412;BMP280;39307;52.870;13.660;2023-02-10T12:39:14;102778.09;;;4.79
53412;BMP280;39307;52.870;13.660;2023-02-10T12:48:09;102772.47;;;4.72
53412;BMP280;39307;52.870;13.660;2023-02-10T12:53:48;102766.84;;;4.66
53412;BMP280;39307;52.870;13.660;2023-02-10T12:58:57;102758.25;;;4.65
53412;BMP280;39307;52.870;13.660;2023-02-10T13:01:48;102754.50;;;4.69
53412;BMP280;39307;52.870;13.660;2023-02-10T13:04:48;102749.03;;;4.74
53412;BMP280;39307;52.870;13.660;2023-02-10T13:07:23;102751.53;;;4.75
53412;BMP280;39307;52.870;13.660;2023-02-10T13:10:04;102744.34;;;4.92
53412;BMP280;39307;52.870;13.660;2023-02-10T13:12:39;102753.88;;;4.92
53412;BMP280;39307;52.870;13.660;2023-02-10T13:15:30;102751.28;;;4.92
53412;BMP280;39307;52.870;13.660;2023-02-10T13:17:58;102737.50;;;4.91
53412;BMP280;39307;52.870;13.660;2023-02-10T13:20:45;102741.63;;;4.94
53412;BMP280;39307;52.870;13.660;2023-02-10T13:23:24;102737.50;;;4.91
53412;BMP280;39307;52.870;13.660;2023-02-10T13:29:22;102743.97;;;4.85
53412;BMP280;39307;52.870;13.660;2023-02-10T13:31:57;102746.69;;;4.83
53412;BMP280;39307;52.870;13.660;2023-02-10T13:34:31;102738.41;;;4.90
53412;BMP280;39307;52.870;13.660;2023-02-10T13:37:22;102732.19;;;4.93
53412;BMP280;39307;52.870;13.660;2023-02-10T13:39:58;102735.91;;;4.89
53412;BMP280;39307;52.870;13.660;2023-02-10T13:47:57;102726.66;;;4.85
53412;BMP280;39307;52.870;13.660;2023-02-10T13:50:42;102732.25;;;4.79
53412;BMP280;39307;52.870;13.660;2023-02-10T13:59:02;102729.19;;;4.73
53412;BMP280;39307;52.870;13.660;2023-02-10T14:03:59;102733.56;;;4.72
53412;BMP280;39307;52.870;13.660;2023-02-10T14:06:37;102729.63;;;4.67
53412;BMP280;39307;52.870;13.660;2023-02-10T14:09:59;102727.09;;;4.65
53412;BMP280;39307;52.870;13.660;2023-02-10T14:11:52;102735.81;;;4.64
53412;BMP280;39307;52.870;13.660;2023-02-10T14:14:34;102734.13;;;4.63
53412;BMP280;39307;52.870;13.660;2023-02-10T14:17:21;102727.06;;;4.79
53412;BMP280;39307;52.870;13.660;2023-02-10T14:19:48;102734.50;;;4.71
53412;BMP280;39307;52.870;13.660;2023-02-10T14:22:24;102737.28;;;4.68
53412;BMP280;39307;52.870;13.660;2023-02-10T14:24:52;102732.69;;;4.59
53412;BMP280;39307;52.870;13.660;2023-02-10T14:27:21;102732.06;;;4.56
53412;BMP280;39307;52.870;13.660;2023-02-10T14:29:56;102729.44;;;4.56
53412;BMP280;39307;52.870;13.660;2023-02-10T14:32:25;102727.75;;;4.69
53412;BMP280;39307;52.870;13.660;2023-02-10T14:34:59;102727.84;;;4.67
53412;BMP280;39307;52.870;13.660;2023-02-10T14:37:26;102730.63;;;4.64
53412;BMP280;39307;52.870;13.660;2023-02-10T14:39:56;102734.13;;;4.63
53412;BMP280;39307;52.870;13.660;2023-02-10T14:42:29;102744.72;;;4.60
53412;BMP280;39307;52.870;13.660;2023-02-10T14:45:03;102730.72;;;4.63
53412;BMP280;39307;52.870;13.660;2023-02-10T14:47:34;102725.06;;;4.70
53412;BMP280;39307;52.870;13.660;2023-02-10T14:50:02;102724.56;;;4.78
53412;BMP280;39307;52.870;13.660;2023-02-10T14:52:34;102724.69;;;4.88
53412;BMP280;39307;52.870;13.660;2023-02-10T14:55:00;102722.63;;;4.93
53412;BMP280;39307;52.870;13.660;2023-02-10T14:57:28;102717.44;;;4.93
53412;BMP280;39307;52.870;13.660;2023-02-10T14:59:55;102719.94;;;4.95
53412;BMP280;39307;52.870;13.660;2023-02-10T15:02:25;102722.22;;;4.99
53412;BMP280;39307;52.870;13.660;2023-02-10T15:04:56;102715.78;;;4.92
53412;BMP280;39307;52.870;13.660;2023-02-10T15:07:32;102713.47;;;4.88
53412;BMP280;39307;52.870;13.660;2023-02-10T15:12:45;102717.81;;;4.88
53412;BMP280;39307;52.870;13.660;2023-02-10T15:15:27;102711.38;;;4.81
53412;BMP280;39307;52.870;13.660;2023-02-10T15:18:20;102699.97;;;4.83
53412;BMP280;39307;52.870;13.660;2023-02-10T15:21:00;102699.56;;;4.89
53412;BMP280;39307;52.870;13.660;2023-02-10T15:23:27;102691.25;;;4.84
53412;BMP280;39307;52.870;13.660;2023-02-10T15:26:00;102696.63;;;4.81
53412;BMP280;39307;52.870;13.660;2023-02-10T15:28:28;102704.09;;;4.73
53412;BMP280;39307;52.870;13.660;2023-02-10T15:36:09;102706.47;;;4.64
53412;BMP280;39307;52.870;13.660;2023-02-10T15:39:00;102721.47;;;4.59